TimeCDT,TemperatureF,Dew PointF,Humidity,Sea Level PressureIn,VisibilityMPH,Wind Direction,Wind SpeedMPH,Gust SpeedMPH,PrecipitationIn,Events,Conditions,WindDirDegrees,DateUTC
12:55 AM,57.2,54.9,92,29.80,10.0,Calm,Calm,-,N/A,,Clear,0,2012-09-05 05:55:00
1:55 AM,60.3,56.1,86,29.77,10.0,SSE,6.9,-,N/A,,Clear,160,2012-09-05 06:55:00
2:55 AM,68.4,55.4,63,29.86,10.0,WSW,13.8,20.7,N/A,,Mostly Cloudy,240,2012-09-05 07:55:00
3:08 AM,69.8,57.2,64,29.87,10.0,SW,13.8,19.6,N/A,Thunderstorm,Light Drizzle,230,2012-09-05 08:08:00
3:28 AM,68.0,60.8,78,29.85,10.0,WSW,19.6,27.6,N/A,,Clear,250,2012-09-05 08:28:00
3:46 AM,66.2,60.8,83,29.86,10.0,WSW,8.1,-,N/A,,Light Drizzle,240,2012-09-05 08:46:00
3:55 AM,66.7,60.3,80,29.86,10.0,Variable,6.9,-,0.00,,Light Drizzle,0,2012-09-05 08:55:00
4:55 AM,66.6,57.2,72,29.87,10.0,WSW,17.3,23.0,0.00,Rain,Light Rain,240,2012-09-05 09:55:00
5:28 AM,66.2,55.4,68,29.83,8.0,SSE,13.8,20.7,N/A,Rain,Light Rain,160,2012-09-05 10:28:00
5:35 AM,64.4,57.2,77,29.78,10.0,SE,15.0,20.7,N/A,Rain,Light Rain,140,2012-09-05 10:35:00
5:43 AM,64.4,57.2,77,29.73,10.0,SE,20.7,26.5,N/A,,Scattered Clouds,130,2012-09-05 10:43:00
5:55 AM,63.5,58.3,83,29.74,10.0,SSE,13.8,-,0.05,,Clear,150,2012-09-05 10:55:00
6:55 AM,60.8,59.0,94,29.76,10.0,SE,3.5,-,N/A,,Mostly Cloudy,140,2012-09-05 11:55:00
7:55 AM,60.8,59.0,94,29.77,10.0,Calm,Calm,-,N/A,,Scattered Clouds,0,2012-09-05 12:55:00
8:55 AM,68.0,60.8,78,29.76,10.0,WNW,4.6,-,N/A,,Partly Cloudy,290,2012-09-05 13:55:00
9:55 AM,71.6,60.8,69,29.78,10.0,West,5.8,-,N/A,,Clear,270,2012-09-05 14:55:00
10:55 AM,75.2,60.8,61,29.81,10.0,NW,12.7,-,N/A,,Partly Cloudy,310,2012-09-05 15:55:00
11:55 AM,75.2,60.8,61,29.81,10.0,WNW,16.1,21.9,N/A,,Partly Cloudy,290,2012-09-05 16:55:00
12:55 PM,77.0,60.8,57,29.79,10.0,West,10.4,21.9,N/A,,Partly Cloudy,280,2012-09-05 17:55:00
1:55 PM,78.8,60.8,54,29.80,10.0,NNW,9.2,-,N/A,,Partly Cloudy,330,2012-09-05 18:55:00
2:55 PM,80.6,59.0,48,29.77,10.0,WNW,8.1,-,N/A,,Partly Cloudy,290,2012-09-05 19:55:00
3:55 PM,82.4,59.0,45,29.78,10.0,NW,8.1,-,N/A,,Partly Cloudy,310,2012-09-05 20:55:00
4:55 PM,82.4,59.0,45,29.78,10.0,NW,8.1,-,N/A,,Partly Cloudy,320,2012-09-05 21:55:00
5:55 PM,78.8,59.0,51,29.80,10.0,NW,8.1,-,N/A,,Scattered Clouds,310,2012-09-05 22:55:00
6:55 PM,75.2,60.8,61,29.81,10.0,NW,3.5,-,N/A,,Scattered Clouds,310,2012-09-05 23:55:00
7:55 PM,64.4,59.0,83,29.82,10.0,Calm,Calm,-,N/A,,Partly Cloudy,0,2012-09-06 00:55:00
8:55 PM,61.3,57.2,86,29.83,10.0,West,4.6,-,N/A,,Clear,260,2012-09-06 01:55:00
9:55 PM,57.6,55.2,92,29.84,10.0,West,5.8,-,N/A,,Clear,260,2012-09-06 02:55:00
10:55 PM,57.7,55.6,92,29.84,10.0,Calm,Calm,-,N/A,,Clear,0,2012-09-06 03:55:00
11:55 PM,55.6,55.2,99,29.85,10.0,Calm,Calm,-,N/A,,Clear,0,2012-09-06 04:55:00